createdAt,value
2018-06-19T00:02:17.742Z,7.47
2018-06-19T00:04:46.152Z,7.00
2018-06-19T00:07:14.687Z,6.80
2018-06-19T00:09:42.834Z,7.63
2018-06-19T00:12:11.819Z,8.53
2018-06-19T00:14:39.973Z,7.53
2018-06-19T00:17:08.120Z,8.70
2018-06-19T00:19:39.903Z,7.57
2018-06-19T00:22:08.062Z,8.43
2018-06-19T00:24:39.680Z,7.93
2018-06-19T00:27:07.837Z,8.07
2018-06-19T00:29:35.989Z,8.30
2018-06-19T00:32:04.170Z,7.63
2018-06-19T00:34:32.317Z,8.07
2018-06-19T00:37:00.483Z,7.80
2018-06-19T00:39:28.651Z,8.50
2018-06-19T00:41:56.819Z,8.30
2018-06-19T00:44:25.012Z,9.17
2018-06-19T00:46:53.121Z,8.50
2018-06-19T00:49:21.283Z,8.00
2018-06-19T00:51:49.484Z,8.37
2018-06-19T00:54:17.633Z,8.30
2018-06-19T00:56:51.772Z,8.93
2018-06-19T00:59:19.935Z,8.00
2018-06-19T01:01:48.116Z,8.33
2018-06-19T01:04:16.339Z,8.83
2018-06-19T01:06:44.822Z,8.57
2018-06-19T01:09:13.552Z,9.00
2018-06-19T01:11:41.867Z,8.37
2018-06-19T01:14:10.032Z,9.00
2018-06-19T01:16:38.281Z,9.23
2018-06-19T01:19:06.555Z,9.53
2018-06-19T01:21:34.734Z,9.47
2018-06-19T01:24:02.931Z,9.20
2018-06-19T01:26:31.102Z,8.83
2018-06-19T01:28:59.282Z,9.07
2018-06-19T01:31:27.428Z,8.90
2018-06-19T01:33:55.635Z,9.03
2018-06-19T01:36:23.812Z,9.20
2018-06-19T01:38:52.006Z,8.40
2018-06-19T01:41:21.457Z,9.13
2018-06-19T01:43:49.639Z,9.47
2018-06-19T01:46:17.825Z,9.30
2018-06-19T01:48:46.254Z,10.10
2018-06-19T01:51:14.430Z,8.77
2018-06-19T01:53:42.595Z,8.17
2018-06-19T01:56:10.764Z,8.67
2018-06-19T01:58:39.108Z,8.67
2018-06-19T02:01:07.268Z,9.20
2018-06-19T02:03:35.439Z,9.10
2018-06-19T02:06:03.795Z,8.80
2018-06-19T02:08:32.210Z,8.70
2018-06-19T02:11:00.372Z,9.70
2018-06-19T02:13:28.547Z,9.60
2018-06-19T02:15:57.084Z,9.37
2018-06-19T02:18:25.249Z,8.57
2018-06-19T02:20:53.758Z,9.50
2018-06-19T02:23:21.971Z,9.33
2018-06-19T02:25:50.129Z,10.13
2018-06-19T02:28:18.401Z,10.30
2018-06-19T02:30:46.572Z,10.90
2018-06-19T02:33:14.744Z,10.77
2018-06-19T02:35:42.903Z,9.33
2018-06-19T02:38:11.110Z,9.80
2018-06-19T02:40:39.343Z,9.67
2018-06-19T02:43:07.524Z,9.67
2018-06-19T02:45:35.685Z,8.77
2018-06-19T02:48:03.837Z,9.27
2018-06-19T02:50:32.033Z,9.00
2018-06-19T02:53:00.204Z,8.30
2018-06-19T02:55:28.403Z,8.90
2018-06-19T02:57:56.561Z,8.07
2018-06-19T03:00:24.742Z,8.30
2018-06-19T03:02:52.973Z,7.90
2018-06-19T03:05:21.440Z,8.37
2018-06-19T03:07:49.700Z,7.87
2018-06-19T03:10:17.966Z,7.83
2018-06-19T03:12:46.117Z,8.23
2018-06-19T03:15:14.288Z,8.50
2018-06-19T03:17:42.860Z,7.73
2018-06-19T03:20:10.824Z,7.07
2018-06-19T03:22:38.971Z,7.30
2018-06-19T03:25:07.160Z,8.37
2018-06-19T03:27:35.318Z,8.70
2018-06-19T03:30:03.459Z,8.70
2018-06-19T03:32:31.634Z,8.47
2018-06-19T03:34:59.956Z,8.20
2018-06-19T03:37:28.234Z,8.90
2018-06-19T03:39:56.382Z,8.50
2018-06-19T03:42:24.645Z,7.93
2018-06-19T03:44:52.900Z,8.10
2018-06-19T03:47:21.052Z,8.43
2018-06-19T03:49:49.214Z,8.60
2018-06-19T03:52:17.580Z,8.00
2018-06-19T03:54:45.744Z,8.00
2018-06-19T03:57:13.895Z,8.13
2018-06-19T03:59:42.128Z,8.50
2018-06-19T04:02:10.305Z,8.30
2018-06-19T04:04:38.477Z,8.47
2018-06-19T04:07:07.772Z,9.17
2018-06-19T04:09:35.925Z,8.93
2018-06-19T04:12:04.085Z,8.40
2018-06-19T04:14:32.270Z,7.47
2018-06-19T04:17:00.217Z,8.17
2018-06-19T04:19:29.046Z,7.50
2018-06-19T04:21:57.208Z,8.03
2018-06-19T04:24:25.376Z,7.73
2018-06-19T04:26:53.563Z,6.80
2018-06-19T04:29:21.480Z,8.00
2018-06-19T04:31:49.655Z,8.20
2018-06-19T04:34:17.820Z,8.17
2018-06-19T04:36:45.982Z,8.10
2018-06-19T04:39:14.179Z,7.40
2018-06-19T04:41:42.604Z,7.60
2018-06-19T04:44:10.781Z,7.33
2018-06-19T04:46:38.938Z,7.23
2018-06-19T04:49:07.112Z,7.80
2018-06-19T04:51:35.392Z,8.07
2018-06-19T04:54:03.688Z,7.73
2018-06-19T04:56:31.860Z,7.17
2018-06-19T04:59:00.045Z,7.20
2018-06-19T05:01:28.293Z,7.17
2018-06-19T05:03:56.467Z,7.87
2018-06-19T05:06:24.858Z,7.73
2018-06-19T05:08:53.010Z,7.27
2018-06-19T05:11:21.203Z,7.40
2018-06-19T05:13:49.416Z,8.00
2018-06-19T05:16:17.596Z,7.10
2018-06-19T05:18:45.852Z,7.57
2018-06-19T05:21:14.033Z,7.43
2018-06-19T05:23:42.184Z,7.37
2018-06-19T05:26:10.381Z,7.03
2018-06-19T05:28:38.540Z,6.90
2018-06-19T05:31:06.902Z,6.57
2018-06-19T05:33:35.283Z,6.47
2018-06-19T05:36:03.593Z,6.47
2018-06-19T05:38:31.859Z,5.90
2018-06-19T05:41:00.232Z,5.67
2018-06-19T05:43:28.464Z,6.03
2018-06-19T05:45:56.685Z,6.43
2018-06-19T05:48:24.863Z,5.90
2018-06-19T05:50:53.230Z,6.07
2018-06-19T05:53:21.425Z,6.00
2018-06-19T05:55:49.605Z,5.27
2018-06-19T05:58:17.784Z,6.37
2018-06-19T06:00:45.981Z,6.67
2018-06-19T06:03:14.321Z,6.17
2018-06-19T06:05:42.548Z,6.60
2018-06-19T06:08:10.676Z,5.80
2018-06-19T06:10:38.982Z,5.33
2018-06-19T06:13:07.150Z,5.10
2018-06-19T06:15:35.087Z,5.70
2018-06-19T06:18:03.342Z,4.93
2018-06-19T06:20:31.530Z,4.77
2018-06-19T06:22:59.705Z,5.00
2018-06-19T06:25:27.896Z,5.17
2018-06-19T06:27:56.116Z,5.07
2018-06-19T06:30:24.295Z,4.77
2018-06-19T06:32:52.483Z,5.03
2018-06-19T06:35:20.816Z,4.40
2018-06-19T06:37:49.000Z,4.57
2018-06-19T06:40:17.190Z,4.30
2018-06-19T06:42:45.404Z,4.80
2018-06-19T06:45:13.809Z,4.30
2018-06-19T06:47:41.967Z,4.30
2018-06-19T06:50:10.320Z,4.57
2018-06-19T06:52:38.426Z,4.87
2018-06-19T06:55:06.593Z,4.60
2018-06-19T06:57:34.784Z,4.30
2018-06-19T07:00:02.989Z,4.50
2018-06-19T07:02:31.318Z,4.33
2018-06-19T07:04:59.695Z,4.43
2018-06-19T07:07:27.992Z,4.27
2018-06-19T07:09:56.169Z,4.50
2018-06-19T07:12:24.343Z,4.43
2018-06-19T07:14:52.670Z,4.07
2018-06-19T07:17:20.855Z,3.80
2018-06-19T07:19:49.027Z,4.10
2018-06-19T07:22:17.223Z,3.70
2018-06-19T07:24:45.422Z,3.73
2018-06-19T07:27:13.953Z,3.40
2018-06-19T07:29:42.120Z,3.30
2018-06-19T07:32:10.283Z,3.00
2018-06-19T07:34:38.438Z,3.33
2018-06-19T07:37:06.620Z,3.40
2018-06-19T07:39:34.794Z,3.00
2018-06-19T07:42:02.713Z,3.40
2018-06-19T07:44:30.879Z,3.13
2018-06-19T07:46:59.057Z,3.67
2018-06-19T07:49:27.264Z,3.60
2018-06-19T07:51:55.425Z,3.10
2018-06-19T07:54:23.595Z,3.00
2018-06-19T07:56:51.906Z,3.17
2018-06-19T07:59:20.080Z,2.70
2018-06-19T08:01:48.247Z,2.70
2018-06-19T08:04:16.406Z,2.80
2018-06-19T08:06:44.572Z,2.60
2018-06-19T08:09:12.913Z,2.23
2018-06-19T08:11:41.093Z,2.60
2018-06-19T08:14:09.580Z,2.50
2018-06-19T08:16:38.283Z,2.27
2018-06-19T08:19:06.463Z,2.00
2018-06-19T08:21:34.637Z,2.08
2018-06-19T08:24:02.632Z,2.27
2018-06-19T08:26:30.800Z,1.70
2018-06-19T08:28:59.122Z,2.08
2018-06-19T08:31:26.882Z,2.60
2018-06-19T08:33:55.059Z,2.30
2018-06-19T08:36:23.289Z,2.30
2018-06-19T08:38:51.777Z,1.92
2018-06-19T08:41:19.944Z,2.00
2018-06-19T08:43:47.889Z,2.25
2018-06-19T08:46:16.088Z,2.02
2018-06-19T08:48:44.272Z,2.20
2018-06-19T08:51:13.037Z,2.00
2018-06-19T08:53:41.495Z,1.92
2018-06-19T08:56:09.678Z,2.00
2018-06-19T08:58:37.861Z,1.80
2018-06-19T09:01:06.156Z,1.85
2018-06-19T09:03:34.299Z,2.10
2018-06-19T09:06:02.480Z,1.80
2018-06-19T09:08:30.864Z,1.87
2018-06-19T09:10:59.032Z,2.08
2018-06-19T09:13:27.248Z,1.70
2018-06-19T09:15:55.381Z,1.70
2018-06-19T09:18:23.544Z,2.00
2018-06-19T09:20:51.723Z,1.98
2018-06-19T09:23:19.890Z,1.80
2018-06-19T09:25:48.092Z,1.75
2018-06-19T09:28:16.270Z,1.80
2018-06-19T09:30:44.437Z,1.80
2018-06-19T09:33:12.670Z,1.72
2018-06-19T09:35:41.168Z,1.70
2018-06-19T09:38:09.339Z,1.60
2018-06-19T09:40:37.536Z,1.80
2018-06-19T09:43:05.763Z,1.80
2018-06-19T09:45:33.924Z,1.80
2018-06-19T09:48:02.098Z,1.80
2018-06-19T09:50:30.275Z,1.70
2018-06-19T09:52:58.464Z,1.80
2018-06-19T09:55:26.664Z,1.60
2018-06-19T09:57:54.833Z,1.82
2018-06-19T10:00:28.341Z,1.82
2018-06-19T10:02:56.526Z,1.60
2018-06-19T10:05:24.701Z,1.82
2018-06-19T10:07:53.033Z,1.57
2018-06-19T10:10:21.209Z,2.00
2018-06-19T10:12:49.384Z,1.60
2018-06-19T10:15:17.699Z,1.65
2018-06-19T10:17:45.871Z,1.82
2018-06-19T10:20:14.142Z,1.40
2018-06-19T10:22:42.387Z,1.67
2018-06-19T10:25:10.609Z,1.72
2018-06-19T10:27:38.811Z,1.70
2018-06-19T10:30:07.016Z,1.70
2018-06-19T10:32:35.400Z,2.08
2018-06-19T10:35:03.588Z,1.92
2018-06-19T10:37:31.749Z,1.90
2018-06-19T10:40:00.644Z,1.82
2018-06-19T10:42:28.806Z,1.98
2018-06-19T10:44:56.999Z,1.98
2018-06-19T10:47:25.193Z,1.70
2018-06-19T10:49:53.129Z,1.87
2018-06-19T10:52:21.458Z,2.00
2018-06-19T10:54:49.666Z,1.82
2018-06-19T10:57:17.833Z,2.08
2018-06-19T10:59:46.448Z,1.85
2018-06-19T11:02:14.641Z,1.70
2018-06-19T11:04:42.803Z,1.67
2018-06-19T11:07:11.197Z,1.85
2018-06-19T11:09:39.362Z,1.80
2018-06-19T11:12:07.537Z,1.70
2018-06-19T11:14:35.719Z,1.98
2018-06-19T11:17:03.875Z,1.87
2018-06-19T11:19:32.048Z,1.92
2018-06-19T11:22:00.227Z,2.05
2018-06-19T11:24:28.400Z,1.70
2018-06-19T11:26:56.572Z,1.90
2018-06-19T11:29:24.728Z,1.85
2018-06-19T11:31:52.904Z,1.80
2018-06-19T11:34:21.080Z,1.60
2018-06-19T11:36:49.269Z,1.45
2018-06-19T11:39:17.413Z,1.90
2018-06-19T11:41:45.593Z,1.80
2018-06-19T11:44:13.771Z,2.00
2018-06-19T11:46:41.933Z,1.60
2018-06-19T11:49:10.246Z,1.85
2018-06-19T11:51:38.324Z,1.67
2018-06-19T11:54:06.257Z,1.60
2018-06-19T11:56:34.426Z,1.60
2018-06-19T11:59:02.688Z,1.70
2018-06-19T12:01:30.867Z,1.50
2018-06-19T12:03:59.146Z,1.70
2018-06-19T12:06:27.383Z,1.50
2018-06-19T12:08:55.630Z,1.50
2018-06-19T12:11:24.875Z,1.47
2018-06-19T12:13:53.235Z,1.70
2018-06-19T12:16:21.407Z,1.80
2018-06-19T12:18:49.593Z,1.42
2018-06-19T12:21:18.286Z,1.47
2018-06-19T12:23:47.228Z,1.67
2018-06-19T12:26:15.373Z,1.45
2018-06-19T12:28:43.564Z,1.57
2018-06-19T12:31:11.749Z,1.50
2018-06-19T12:33:40.170Z,1.42
2018-06-19T12:36:08.796Z,1.50
2018-06-19T12:38:37.379Z,1.40
2018-06-19T12:41:05.662Z,1.37
2018-06-19T12:43:33.901Z,1.50
2018-06-19T12:46:02.133Z,1.40
2018-06-19T12:51:43.482Z,1.35
2018-06-19T12:54:23.229Z,1.50
2018-06-19T12:56:51.411Z,1.40
2018-06-19T12:59:20.350Z,1.40
2018-06-19T13:01:48.672Z,1.32
2018-06-19T13:04:28.355Z,1.50
2018-06-19T13:06:56.539Z,1.45
2018-06-19T13:09:24.698Z,1.50
2018-06-19T13:11:53.000Z,1.42
2018-06-19T13:14:32.545Z,1.30
2018-06-19T13:17:12.207Z,1.40
2018-06-19T13:19:45.811Z,1.45
2018-06-19T13:22:13.891Z,1.50
2018-06-19T13:24:42.071Z,1.30
2018-06-19T13:27:10.262Z,1.50
2018-06-19T13:29:45.455Z,1.37
2018-06-19T13:32:13.647Z,1.40
2018-06-19T13:34:41.847Z,1.70
2018-06-19T13:37:10.148Z,1.50
2018-06-19T13:39:39.018Z,1.42
2018-06-19T13:42:13.049Z,1.50
2018-06-19T13:44:51.512Z,1.42
2018-06-19T13:47:19.847Z,1.30
2018-06-19T13:49:48.119Z,1.32
2018-06-19T13:52:16.281Z,1.32
2018-06-19T13:54:44.475Z,1.50
2018-06-19T13:57:42.077Z,1.72
2018-06-19T14:00:14.301Z,1.47
2018-06-19T14:02:45.465Z,1.40
2018-06-19T14:05:16.177Z,1.60
2018-06-19T14:08:05.635Z,1.70
2018-06-19T14:10:45.180Z,1.60
2018-06-19T14:13:13.346Z,1.70
2018-06-19T14:15:48.515Z,1.70
2018-06-19T14:18:17.720Z,1.52
2018-06-19T14:20:45.668Z,1.55
2018-06-19T14:23:14.097Z,1.57
2018-06-19T14:25:42.258Z,1.20
2018-06-19T14:28:10.559Z,1.47
2018-06-19T14:30:38.741Z,1.40
2018-06-19T14:33:06.914Z,1.60
2018-06-19T14:35:35.084Z,1.70
2018-06-19T14:38:03.298Z,1.50
2018-06-19T14:40:31.477Z,1.60
2018-06-19T14:42:59.732Z,1.62
2018-06-19T14:45:28.243Z,1.40
2018-06-19T14:47:56.484Z,1.65
2018-06-19T14:50:26.113Z,1.50
2018-06-19T14:52:54.317Z,1.40
2018-06-19T14:55:22.497Z,1.60
2018-06-19T14:57:50.703Z,1.70
2018-06-19T15:00:18.936Z,1.50
2018-06-19T15:02:47.809Z,1.50
2018-06-19T15:05:15.985Z,1.37
2018-06-19T15:07:49.681Z,1.40
2018-06-19T15:10:18.440Z,1.50
2018-06-19T15:12:46.560Z,1.60
2018-06-19T15:15:14.720Z,1.70
2018-06-19T15:17:42.910Z,1.32
2018-06-19T15:20:12.409Z,1.42
2018-06-19T15:22:40.631Z,1.40
2018-06-19T15:25:08.818Z,1.62
2018-06-19T15:27:37.014Z,1.42
2018-06-19T15:30:05.204Z,1.60
2018-06-19T15:32:33.392Z,1.55
2018-06-19T15:35:01.596Z,1.82
2018-06-19T15:37:29.828Z,1.80
2018-06-19T15:39:57.997Z,1.70
2018-06-19T15:42:26.153Z,1.52
2018-06-19T15:44:54.397Z,1.45
2018-06-19T15:47:22.593Z,1.40
2018-06-19T15:49:50.780Z,1.70
2018-06-19T15:52:19.043Z,2.20
2018-06-19T15:54:47.237Z,1.50
2018-06-19T15:57:15.433Z,2.40
2018-06-19T15:59:43.892Z,1.50
2018-06-19T16:02:12.064Z,1.47
2018-06-19T16:04:40.238Z,1.40
2018-06-19T16:07:08.421Z,1.60
2018-06-19T16:09:36.620Z,1.60
2018-06-19T16:12:04.831Z,1.30
2018-06-19T16:14:33.027Z,1.40
2018-06-19T16:17:01.257Z,1.50
2018-06-19T16:19:29.441Z,1.55
2018-06-19T16:21:57.623Z,1.70
2018-06-19T16:24:25.804Z,1.70
2018-06-19T16:26:54.320Z,1.60
2018-06-19T16:29:22.247Z,1.60
2018-06-19T16:31:50.440Z,1.50
2018-06-19T16:34:18.595Z,1.60
2018-06-19T16:36:47.453Z,1.62
2018-06-19T16:39:15.632Z,1.60
2018-06-19T16:41:43.881Z,1.50
2018-06-19T16:44:12.125Z,1.50
2018-06-19T16:46:40.316Z,1.77
2018-06-19T16:49:08.479Z,1.60
2018-06-19T16:51:36.647Z,1.60
2018-06-19T16:54:04.891Z,1.50
2018-06-19T16:56:33.124Z,2.00
2018-06-19T16:59:01.357Z,1.65
2018-06-19T17:01:29.571Z,1.60
2018-06-19T17:03:57.704Z,1.52
2018-06-19T17:06:25.923Z,1.50
2018-06-19T17:08:54.575Z,1.45
2018-06-19T17:11:22.845Z,1.70
2018-06-19T17:13:51.048Z,1.60
2018-06-19T17:16:19.194Z,1.70
2018-06-19T17:18:47.585Z,1.80
2018-06-19T17:21:15.809Z,2.00
2018-06-19T17:23:43.763Z,1.90
2018-06-19T17:26:11.981Z,1.90
2018-06-19T17:28:40.160Z,1.95
2018-06-19T17:31:08.423Z,1.65
2018-06-19T17:33:36.753Z,1.90
2018-06-19T17:36:04.916Z,2.10
2018-06-19T17:38:33.099Z,2.15
2018-06-19T17:41:01.331Z,2.40
2018-06-19T17:43:29.603Z,2.22
2018-06-19T17:45:57.776Z,1.85
2018-06-19T17:48:25.946Z,1.90
2018-06-19T17:50:54.866Z,2.08
2018-06-19T17:53:23.059Z,2.40
2018-06-19T17:55:51.217Z,1.98
2018-06-19T17:58:19.402Z,1.85
2018-06-19T18:00:47.584Z,2.15
2018-06-19T18:03:15.747Z,2.20
2018-06-19T18:05:43.920Z,2.15
2018-06-19T18:08:12.094Z,2.40
2018-06-19T18:10:40.317Z,2.17
2018-06-19T18:13:08.420Z,2.27
2018-06-19T18:15:36.687Z,2.10
2018-06-19T18:18:04.809Z,2.20
2018-06-19T18:20:32.958Z,2.02
2018-06-19T18:23:01.141Z,2.10
2018-06-19T18:25:29.308Z,2.17
2018-06-19T18:27:57.488Z,2.13
2018-06-19T18:30:26.021Z,2.20
2018-06-19T18:32:54.200Z,2.20
2018-06-19T18:35:22.377Z,2.30
2018-06-19T18:37:50.539Z,2.17
2018-06-19T18:40:18.713Z,2.40
2018-06-19T18:42:46.851Z,2.20
2018-06-19T18:45:15.050Z,2.40
2018-06-19T18:47:43.217Z,2.30
2018-06-19T18:50:11.402Z,2.20
2018-06-19T18:52:39.629Z,2.53
2018-06-19T18:55:07.832Z,2.53
2018-06-19T18:57:36.005Z,2.80
2018-06-19T19:00:04.343Z,2.40
2018-06-19T19:02:32.545Z,2.77
2018-06-19T19:05:00.778Z,2.90
2018-06-19T19:07:29.006Z,2.73
2018-06-19T19:10:02.573Z,2.30
2018-06-19T19:12:30.855Z,2.60
2018-06-19T19:15:04.505Z,3.10
2018-06-19T19:17:37.964Z,2.87
2018-06-19T19:20:06.221Z,2.70
2018-06-19T19:22:34.405Z,2.87
2018-06-19T19:25:02.793Z,2.83
2018-06-19T19:27:36.522Z,2.60
2018-06-19T19:30:05.096Z,3.10
2018-06-19T19:32:33.347Z,3.00
2018-06-19T19:35:01.567Z,2.90
2018-06-19T19:37:35.380Z,2.97
2018-06-19T19:40:03.785Z,2.90
2018-06-19T19:42:32.187Z,2.67
2018-06-19T19:45:00.415Z,2.77
2018-06-19T19:47:34.106Z,3.27
2018-06-19T19:50:02.331Z,2.93
2018-06-19T19:52:30.514Z,3.13
2018-06-19T19:54:58.853Z,2.97
2018-06-19T19:57:32.254Z,3.30
2018-06-19T20:00:00.425Z,3.13
2018-06-19T20:02:28.607Z,2.80
2018-06-19T20:04:57.007Z,3.37
2018-06-19T20:07:25.222Z,3.57
2018-06-19T20:09:53.401Z,3.47
2018-06-19T20:12:21.616Z,3.33
2018-06-19T20:14:49.800Z,3.33
2018-06-19T20:17:17.970Z,3.60
2018-06-19T20:19:46.255Z,3.70
2018-06-19T20:22:14.585Z,3.50
2018-06-19T20:24:42.749Z,3.63
2018-06-19T20:27:10.941Z,3.37
2018-06-19T20:29:39.273Z,3.77
2018-06-19T20:32:07.654Z,3.80
2018-06-19T20:34:35.860Z,4.33
2018-06-19T20:37:04.047Z,4.77
2018-06-19T20:39:32.832Z,4.23
2018-06-19T20:42:00.994Z,4.80
2018-06-19T20:44:29.571Z,3.90
2018-06-19T20:46:57.759Z,4.00
2018-06-19T20:49:26.076Z,4.00
2018-06-19T20:51:54.289Z,4.10
2018-06-19T20:54:22.532Z,3.87
2018-06-19T20:56:50.748Z,4.10
2018-06-19T20:59:18.942Z,4.33
2018-06-19T21:01:47.144Z,4.17
2018-06-19T21:06:49.961Z,4.17
2018-06-19T21:09:18.324Z,4.07
2018-06-19T21:11:46.501Z,4.37
2018-06-19T21:14:14.720Z,4.40
2018-06-19T21:16:42.987Z,4.40
2018-06-19T21:19:11.214Z,4.90
2018-06-19T21:21:39.367Z,4.70
2018-06-19T21:24:07.857Z,4.53
2018-06-19T21:26:35.832Z,4.60
2018-06-19T21:29:04.006Z,4.37
2018-06-19T21:31:32.168Z,4.97
2018-06-19T21:34:00.329Z,4.53
2018-06-19T21:36:28.547Z,4.87
2018-06-19T21:38:56.754Z,4.80
2018-06-19T21:41:25.375Z,5.07
2018-06-19T21:43:53.749Z,4.90
2018-06-19T21:46:21.950Z,5.93
2018-06-19T21:48:50.095Z,5.50
2018-06-19T21:51:18.286Z,5.13
2018-06-19T21:53:46.467Z,5.20
2018-06-19T21:56:14.776Z,5.40
2018-06-19T21:58:42.987Z,5.33
2018-06-19T22:01:11.156Z,5.33
2018-06-19T22:03:39.396Z,5.53
2018-06-19T22:06:07.636Z,5.27
2018-06-19T22:08:41.176Z,5.30
2018-06-19T22:11:09.352Z,5.27
2018-06-19T22:13:37.670Z,5.30
2018-06-19T22:16:06.185Z,5.77
2018-06-19T22:18:34.397Z,5.80
2018-06-19T22:21:02.620Z,5.73
2018-06-19T22:23:30.797Z,5.07
2018-06-19T22:25:58.985Z,5.33
2018-06-19T22:28:27.204Z,6.53
2018-06-19T22:30:55.411Z,6.10
2018-06-19T22:33:23.612Z,5.13
2018-06-19T22:35:51.793Z,5.70
2018-06-19T22:38:20.111Z,6.10
2018-06-19T22:40:48.559Z,5.50
2018-06-19T22:43:16.773Z,6.30
2018-06-19T22:45:44.946Z,6.20
2018-06-19T22:48:13.536Z,6.50
2018-06-19T22:50:42.708Z,6.20
2018-06-19T22:53:10.888Z,6.20
2018-06-19T22:55:39.129Z,6.10
2018-06-19T22:58:07.294Z,6.20
2018-06-19T23:00:35.268Z,6.60
2018-06-19T23:03:05.269Z,6.47
2018-06-19T23:05:34.705Z,6.57
2018-06-19T23:08:03.348Z,6.10
2018-06-19T23:10:31.604Z,6.63
2018-06-19T23:13:00.911Z,6.13
2018-06-19T23:15:29.080Z,6.43
2018-06-19T23:17:57.252Z,6.30
2018-06-19T23:20:25.414Z,6.57
2018-06-19T23:22:53.592Z,6.63
2018-06-19T23:25:21.822Z,6.50
2018-06-19T23:27:50.036Z,6.87
2018-06-19T23:30:18.706Z,7.53
2018-06-19T23:32:47.036Z,6.70
2018-06-19T23:35:15.189Z,6.50
2018-06-19T23:37:43.661Z,6.90
2018-06-19T23:40:11.992Z,7.53
2018-06-19T23:42:40.190Z,7.03
2018-06-19T23:45:08.344Z,7.13
2018-06-19T23:47:36.512Z,7.00
2018-06-19T23:50:04.900Z,6.83
2018-06-19T23:52:33.060Z,6.97
2018-06-19T23:55:01.215Z,7.00
2018-06-19T23:57:29.412Z,7.13
2018-06-19T23:59:57.584Z,7.30
